Sultan Mahmud Airport Kuala Terengganu MY
ICAO: WMKN
IATA:
Category: Medium
Scheduled Services:

Elevation: 21 ft
TransAlt. 11000 ft.

Airport Communications:
TERENGGANU GND:121.6
TERENGGANU TWR:123.6

WMKN Zoom In..

If you have problems with the map follow the link
https://www.worldairports.se/pages/airport.php?
ICAO=WMKN

Runways:

(A) RW 04 length 11417 ft width 148 ft
ILS 108.10 / hdg 44

(B) RW 22 length 11417 ft width 148 ft
---- / hdg 224

Location; WMKN
Day. 05 / Time. 15.00 Zulu
* QNH: 1014
* Temperature: 27° c. 80.6°f.
* Wind from: 050° Speed 07 kn with Gusts up to 17 kn.
Dewpoint: 23° c.
Visibility: 10 km or more.
Clouds: Few 2200 ft.

WMKN 051500Z 05007G17KT 360V110 9999 FEW022 27/23 Q1014


Wind From 050°
Speed 07 kn.

 
 
jpsmedia worldairports.se 2019   terms of use